sensor_id;sensor_type;location;lat;lon;timestamp;temperature;humidity
55083;DHT22;40978;52.850;6.506;2023-03-01T00:01:33;-1.30;99.90
55083;DHT22;40978;52.850;6.506;2023-03-01T00:03:59;-1.30;99.90
55083;DHT22;40978;52.850;6.506;2023-03-01T00:06:26;-1.30;99.90
55083;DHT22;40978;52.850;6.506;2023-03-01T00:08:52;-1.30;99.90
55083;DHT22;40978;52.850;6.506;2023-03-01T00:11:23;-1.30;99.90
55083;DHT22;40978;52.850;6.506;2023-03-01T00:13:52;-1.40;99.90
55083;DHT22;40978;52.850;6.506;2023-03-01T00:16:21;-1.40;99.90
55083;DHT22;40978;52.850;6.506;2023-03-01T00:18:47;-1.40;99.90
55083;DHT22;40978;52.850;6.506;2023-03-01T00:21:13;-1.40;99.90
55083;DHT22;40978;52.850;6.506;2023-03-01T00:23:39;-1.40;99.90
55083;DHT22;40978;52.850;6.506;2023-03-01T00:26:07;-1.50;99.90
55083;DHT22;40978;52.850;6.506;2023-03-01T00:28:34;-1.50;99.90
55083;DHT22;40978;52.850;6.506;2023-03-01T00:31:07;-1.50;99.90
55083;DHT22;40978;52.850;6.506;2023-03-01T00:33:33;-1.50;99.90
55083;DHT22;40978;52.850;6.506;2023-03-01T00:36:00;-1.50;99.90
55083;DHT22;40978;52.850;6.506;2023-03-01T00:38:26;-1.60;99.90
55083;DHT22;40978;52.850;6.506;2023-03-01T00:40:52;-1.60;99.90
55083;DHT22;40978;52.850;6.506;2023-03-01T00:43:18;-1.60;99.90
55083;DHT22;40978;52.850;6.506;2023-03-01T00:45:44;-1.70;99.90
55083;DHT22;40978;52.850;6.506;2023-03-01T00:48:10;-1.70;99.90
55083;DHT22;40978;52.850;6.506;2023-03-01T00:50:36;-1.70;99.90
55083;DHT22;40978;52.850;6.506;2023-03-01T00:53:01;-1.70;99.90
55083;DHT22;40978;52.850;6.506;2023-03-01T00:55:27;-1.80;99.90
55083;DHT22;40978;52.850;6.506;2023-03-01T00:57:53;-1.80;99.90
55083;DHT22;40978;52.850;6.506;2023-03-01T01:00:19;-1.80;99.90
55083;DHT22;40978;52.850;6.506;2023-03-01T01:02:45;-1.80;99.90
55083;DHT22;40978;52.850;6.506;2023-03-01T01:05:11;-1.80;99.90
55083;DHT22;40978;52.850;6.506;2023-03-01T01:07:37;-1.80;99.90
55083;DHT22;40978;52.850;6.506;2023-03-01T01:10:03;-1.70;99.90
55083;DHT22;40978;52.850;6.506;2023-03-01T01:12:29;-1.70;99.90
55083;DHT22;40978;52.850;6.506;2023-03-01T01:14:55;-1.70;99.90
55083;DHT22;40978;52.850;6.506;2023-03-01T01:17:21;-1.70;99.90
55083;DHT22;40978;52.850;6.506;2023-03-01T01:19:46;-1.60;99.90
55083;DHT22;40978;52.850;6.506;2023-03-01T01:22:12;-1.60;99.90
55083;DHT22;40978;52.850;6.506;2023-03-01T01:24:38;-1.60;99.90
55083;DHT22;40978;52.850;6.506;2023-03-01T01:27:03;-1.60;99.90
55083;DHT22;40978;52.850;6.506;2023-03-01T01:29:29;-1.50;99.90
55083;DHT22;40978;52.850;6.506;2023-03-01T01:31:55;-1.50;99.90
55083;DHT22;40978;52.850;6.506;2023-03-01T01:34:21;-1.50;99.90
55083;DHT22;40978;52.850;6.506;2023-03-01T01:36:49;-1.50;99.90
55083;DHT22;40978;52.850;6.506;2023-03-01T01:39:15;-1.50;99.90
55083;DHT22;40978;52.850;6.506;2023-03-01T01:41:41;-1.60;99.90
55083;DHT22;40978;52.850;6.506;2023-03-01T01:46:45;-1.60;99.90
55083;DHT22;40978;52.850;6.506;2023-03-01T01:52:21;-1.60;99.90
55083;DHT22;40978;52.850;6.506;2023-03-01T01:54:57;-1.70;99.90
55083;DHT22;40978;52.850;6.506;2023-03-01T01:57:33;-1.60;99.90
55083;DHT22;40978;52.850;6.506;2023-03-01T02:00:00;-1.70;99.90
55083;DHT22;40978;52.850;6.506;2023-03-01T02:02:28;-1.70;99.90
55083;DHT22;40978;52.850;6.506;2023-03-01T02:05:06;-1.80;99.90
55083;DHT22;40978;52.850;6.506;2023-03-01T02:07:38;-1.80;99.90
55083;DHT22;40978;52.850;6.506;2023-03-01T02:10:04;-1.80;99.90
55083;DHT22;40978;52.850;6.506;2023-03-01T02:12:30;-1.80;99.90
55083;DHT22;40978;52.850;6.506;2023-03-01T02:14:56;-1.80;99.90
55083;DHT22;40978;52.850;6.506;2023-03-01T02:17:22;-1.90;99.90
55083;DHT22;40978;52.850;6.506;2023-03-01T02:22:36;-1.90;99.90
55083;DHT22;40978;52.850;6.506;2023-03-01T02:27:55;-2.00;99.90
55083;DHT22;40978;52.850;6.506;2023-03-01T02:30:24;-2.00;99.90
55083;DHT22;40978;52.850;6.506;2023-03-01T02:32:51;-2.10;99.90
55083;DHT22;40978;52.850;6.506;2023-03-01T02:35:19;-2.20;99.90
55083;DHT22;40978;52.850;6.506;2023-03-01T02:37:45;-2.10;99.90
55083;DHT22;40978;52.850;6.506;2023-03-01T02:40:14;-2.10;99.90
55083;DHT22;40978;52.850;6.506;2023-03-01T02:42:56;-2.20;99.90
55083;DHT22;40978;52.850;6.506;2023-03-01T02:45:22;-2.20;99.90
55083;DHT22;40978;52.850;6.506;2023-03-01T02:47:48;-2.30;99.90
55083;DHT22;40978;52.850;6.506;2023-03-01T02:50:33;-2.30;99.90
55083;DHT22;40978;52.850;6.506;2023-03-01T02:53:12;-2.30;99.90
55083;DHT22;40978;52.850;6.506;2023-03-01T02:55:41;-2.30;99.90
55083;DHT22;40978;52.850;6.506;2023-03-01T02:58:07;-2.40;99.90
55083;DHT22;40978;52.850;6.506;2023-03-01T03:00:37;-2.40;99.90
55083;DHT22;40978;52.850;6.506;2023-03-01T03:03:06;-2.40;99.90
55083;DHT22;40978;52.850;6.506;2023-03-01T03:05:33;-2.40;99.90
55083;DHT22;40978;52.850;6.506;2023-03-01T03:08:01;-2.50;99.90
55083;DHT22;40978;52.850;6.506;2023-03-01T03:10:29;-2.50;99.90
55083;DHT22;40978;52.850;6.506;2023-03-01T03:13:01;-2.50;99.90
55083;DHT22;40978;52.850;6.506;2023-03-01T03:15:28;-2.60;99.90
55083;DHT22;40978;52.850;6.506;2023-03-01T03:17:54;-2.60;99.90
55083;DHT22;40978;52.850;6.506;2023-03-01T03:20:24;-2.60;99.90
55083;DHT22;40978;52.850;6.506;2023-03-01T03:22:53;-2.70;99.90
55083;DHT22;40978;52.850;6.506;2023-03-01T03:25:20;-2.70;99.90
55083;DHT22;40978;52.850;6.506;2023-03-01T03:27:48;-2.80;99.90
55083;DHT22;40978;52.850;6.506;2023-03-01T03:30:18;-2.80;99.90
55083;DHT22;40978;52.850;6.506;2023-03-01T03:32:47;-2.80;99.90
55083;DHT22;40978;52.850;6.506;2023-03-01T03:37:50;-2.80;99.90
55083;DHT22;40978;52.850;6.506;2023-03-01T03:40:55;-2.80;99.90
55083;DHT22;40978;52.850;6.506;2023-03-01T03:43:26;-2.90;99.90
55083;DHT22;40978;52.850;6.506;2023-03-01T03:45:52;-2.90;99.90
55083;DHT22;40978;52.850;6.506;2023-03-01T03:48:18;-2.90;99.90
55083;DHT22;40978;52.850;6.506;2023-03-01T03:50:49;-2.90;99.90
55083;DHT22;40978;52.850;6.506;2023-03-01T03:53:15;-3.00;99.90
55083;DHT22;40978;52.850;6.506;2023-03-01T03:55:41;-3.00;99.90
55083;DHT22;40978;52.850;6.506;2023-03-01T03:58:08;-3.00;99.90
55083;DHT22;40978;52.850;6.506;2023-03-01T04:00:37;-3.00;99.90
55083;DHT22;40978;52.850;6.506;2023-03-01T04:03:04;-3.00;99.90
55083;DHT22;40978;52.850;6.506;2023-03-01T04:05:30;-3.10;99.90
55083;DHT22;40978;52.850;6.506;2023-03-01T04:07:56;-3.10;99.90
55083;DHT22;40978;52.850;6.506;2023-03-01T04:10:30;-3.10;99.90
55083;DHT22;40978;52.850;6.506;2023-03-01T04:12:56;-3.10;99.90
55083;DHT22;40978;52.850;6.506;2023-03-01T04:15:23;-3.10;99.90
55083;DHT22;40978;52.850;6.506;2023-03-01T04:17:51;-3.10;99.90
55083;DHT22;40978;52.850;6.506;2023-03-01T04:20:24;-3.10;99.90
55083;DHT22;40978;52.850;6.506;2023-03-01T04:22:52;-3.10;99.90
55083;DHT22;40978;52.850;6.506;2023-03-01T04:25:18;-3.20;99.90
55083;DHT22;40978;52.850;6.506;2023-03-01T04:27:43;-3.10;99.90
55083;DHT22;40978;52.850;6.506;2023-03-01T04:30:10;-3.20;99.90
55083;DHT22;40978;52.850;6.506;2023-03-01T04:32:36;-3.20;99.90
55083;DHT22;40978;52.850;6.506;2023-03-01T04:35:04;-3.20;99.90
55083;DHT22;40978;52.850;6.506;2023-03-01T04:37:37;-3.20;99.90
55083;DHT22;40978;52.850;6.506;2023-03-01T04:40:09;-3.20;99.90
55083;DHT22;40978;52.850;6.506;2023-03-01T04:42:41;-3.20;99.90
55083;DHT22;40978;52.850;6.506;2023-03-01T04:45:08;-3.20;99.90
55083;DHT22;40978;52.850;6.506;2023-03-01T04:47:40;-3.20;99.90
55083;DHT22;40978;52.850;6.506;2023-03-01T04:50:07;-3.30;99.90
55083;DHT22;40978;52.850;6.506;2023-03-01T04:52:33;-3.30;99.90
55083;DHT22;40978;52.850;6.506;2023-03-01T04:54:59;-3.30;99.90
55083;DHT22;40978;52.850;6.506;2023-03-01T04:57:24;-3.30;99.90
55083;DHT22;40978;52.850;6.506;2023-03-01T04:59:50;-3.30;99.90
55083;DHT22;40978;52.850;6.506;2023-03-01T05:02:16;-3.30;99.90
55083;DHT22;40978;52.850;6.506;2023-03-01T05:04:42;-3.40;99.90
55083;DHT22;40978;52.850;6.506;2023-03-01T05:07:07;-3.40;99.90
55083;DHT22;40978;52.850;6.506;2023-03-01T05:09:33;-3.40;99.90
55083;DHT22;40978;52.850;6.506;2023-03-01T05:11:59;-3.40;99.90
55083;DHT22;40978;52.850;6.506;2023-03-01T05:14:25;-3.40;99.90
55083;DHT22;40978;52.850;6.506;2023-03-01T05:16:50;-3.40;99.90
55083;DHT22;40978;52.850;6.506;2023-03-01T05:19:16;-3.40;99.90
55083;DHT22;40978;52.850;6.506;2023-03-01T05:21:48;-3.50;99.90
55083;DHT22;40978;52.850;6.506;2023-03-01T05:24:30;-3.40;99.90
55083;DHT22;40978;52.850;6.506;2023-03-01T05:26:57;-3.40;99.90
55083;DHT22;40978;52.850;6.506;2023-03-01T05:29:24;-3.40;99.90
55083;DHT22;40978;52.850;6.506;2023-03-01T05:31:55;-3.40;99.90
55083;DHT22;40978;52.850;6.506;2023-03-01T05:34:26;-3.40;99.90
55083;DHT22;40978;52.850;6.506;2023-03-01T05:36:52;-3.40;99.90
55083;DHT22;40978;52.850;6.506;2023-03-01T05:39:23;-3.30;99.90
55083;DHT22;40978;52.850;6.506;2023-03-01T05:41:52;-3.50;99.90
55083;DHT22;40978;52.850;6.506;2023-03-01T05:44:19;-3.50;99.90
55083;DHT22;40978;52.850;6.506;2023-03-01T05:46:44;-3.50;99.90
55083;DHT22;40978;52.850;6.506;2023-03-01T05:49:11;-3.50;99.90
55083;DHT22;40978;52.850;6.506;2023-03-01T05:51:41;-3.50;99.90
55083;DHT22;40978;52.850;6.506;2023-03-01T05:54:09;-3.50;99.90
55083;DHT22;40978;52.850;6.506;2023-03-01T05:56:35;-3.60;99.90
55083;DHT22;40978;52.850;6.506;2023-03-01T05:59:02;-3.60;99.90
55083;DHT22;40978;52.850;6.506;2023-03-01T06:01:28;-3.60;99.90
55083;DHT22;40978;52.850;6.506;2023-03-01T06:03:55;-3.60;99.90
55083;DHT22;40978;52.850;6.506;2023-03-01T06:06:22;-3.60;99.90
55083;DHT22;40978;52.850;6.506;2023-03-01T06:08:48;-3.60;99.90
55083;DHT22;40978;52.850;6.506;2023-03-01T06:11:14;-3.60;99.90
55083;DHT22;40978;52.850;6.506;2023-03-01T06:13:43;-3.60;99.90
55083;DHT22;40978;52.850;6.506;2023-03-01T06:16:10;-3.70;99.90
55083;DHT22;40978;52.850;6.506;2023-03-01T06:18:36;-3.70;99.90
55083;DHT22;40978;52.850;6.506;2023-03-01T06:21:03;-3.60;99.90
55083;DHT22;40978;52.850;6.506;2023-03-01T06:23:29;-3.70;99.90
55083;DHT22;40978;52.850;6.506;2023-03-01T06:25:55;-3.60;99.90
55083;DHT22;40978;52.850;6.506;2023-03-01T06:28:21;-3.70;99.90
55083;DHT22;40978;52.850;6.506;2023-03-01T06:30:47;-3.70;99.90
55083;DHT22;40978;52.850;6.506;2023-03-01T06:33:13;-3.80;99.90
55083;DHT22;40978;52.850;6.506;2023-03-01T06:35:39;-3.80;99.90
55083;DHT22;40978;52.850;6.506;2023-03-01T06:38:05;-3.70;99.90
55083;DHT22;40978;52.850;6.506;2023-03-01T06:40:31;-3.70;99.90
55083;DHT22;40978;52.850;6.506;2023-03-01T06:42:58;-3.80;99.90
55083;DHT22;40978;52.850;6.506;2023-03-01T06:45:24;-3.70;99.90
55083;DHT22;40978;52.850;6.506;2023-03-01T06:47:50;-3.70;99.90
55083;DHT22;40978;52.850;6.506;2023-03-01T06:50:17;-3.70;99.90
55083;DHT22;40978;52.850;6.506;2023-03-01T06:52:43;-3.60;99.90
55083;DHT22;40978;52.850;6.506;2023-03-01T06:55:11;-3.60;99.90
55083;DHT22;40978;52.850;6.506;2023-03-01T06:57:37;-3.50;99.90
55083;DHT22;40978;52.850;6.506;2023-03-01T07:00:04;-3.50;99.90
55083;DHT22;40978;52.850;6.506;2023-03-01T07:02:31;-3.40;99.90
55083;DHT22;40978;52.850;6.506;2023-03-01T07:04:57;-3.30;99.90
55083;DHT22;40978;52.850;6.506;2023-03-01T07:07:22;-3.20;99.90
55083;DHT22;40978;52.850;6.506;2023-03-01T07:09:49;-3.10;99.90
55083;DHT22;40978;52.850;6.506;2023-03-01T07:12:15;-3.00;99.90
55083;DHT22;40978;52.850;6.506;2023-03-01T07:14:41;-2.90;99.90
55083;DHT22;40978;52.850;6.506;2023-03-01T07:17:09;-2.80;99.90
55083;DHT22;40978;52.850;6.506;2023-03-01T07:19:34;-2.70;99.90
55083;DHT22;40978;52.850;6.506;2023-03-01T07:22:00;-2.60;99.90
55083;DHT22;40978;52.850;6.506;2023-03-01T07:24:26;-2.40;99.90
55083;DHT22;40978;52.850;6.506;2023-03-01T07:26:52;-2.30;99.90
55083;DHT22;40978;52.850;6.506;2023-03-01T07:29:19;-2.10;99.90
55083;DHT22;40978;52.850;6.506;2023-03-01T07:31:45;-1.90;99.90
55083;DHT22;40978;52.850;6.506;2023-03-01T07:34:11;-1.70;99.90
55083;DHT22;40978;52.850;6.506;2023-03-01T07:36:37;-1.50;99.90
55083;DHT22;40978;52.850;6.506;2023-03-01T07:39:03;-1.20;99.90
55083;DHT22;40978;52.850;6.506;2023-03-01T07:41:29;-0.90;99.90
55083;DHT22;40978;52.850;6.506;2023-03-01T07:43:55;-0.50;99.90
55083;DHT22;40978;52.850;6.506;2023-03-01T07:46:21;0.20;99.90
55083;DHT22;40978;52.850;6.506;2023-03-01T07:48:48;0.80;99.90
55083;DHT22;40978;52.850;6.506;2023-03-01T07:51:13;1.50;99.90
55083;DHT22;40978;52.850;6.506;2023-03-01T07:53:39;2.60;99.90
55083;DHT22;40978;52.850;6.506;2023-03-01T07:56:10;3.60;99.90
55083;DHT22;40978;52.850;6.506;2023-03-01T07:58:41;4.50;99.90
55083;DHT22;40978;52.850;6.506;2023-03-01T08:01:10;5.30;99.90
55083;DHT22;40978;52.850;6.506;2023-03-01T08:03:36;6.10;99.90
55083;DHT22;40978;52.850;6.506;2023-03-01T08:06:04;6.80;99.90
55083;DHT22;40978;52.850;6.506;2023-03-01T08:08:31;7.50;99.90
55083;DHT22;40978;52.850;6.506;2023-03-01T08:10:58;8.10;99.90
55083;DHT22;40978;52.850;6.506;2023-03-01T08:13:24;8.50;99.90
55083;DHT22;40978;52.850;6.506;2023-03-01T08:15:50;8.90;99.90
55083;DHT22;40978;52.850;6.506;2023-03-01T08:18:20;8.70;99.90
55083;DHT22;40978;52.850;6.506;2023-03-01T08:20:46;9.10;99.90
55083;DHT22;40978;52.850;6.506;2023-03-01T08:23:12;9.40;99.90
55083;DHT22;40978;52.850;6.506;2023-03-01T08:25:38;9.40;99.90
55083;DHT22;40978;52.850;6.506;2023-03-01T08:28:04;9.60;99.90
55083;DHT22;40978;52.850;6.506;2023-03-01T08:30:30;9.80;99.90
55083;DHT22;40978;52.850;6.506;2023-03-01T08:32:56;9.80;99.90
55083;DHT22;40978;52.850;6.506;2023-03-01T08:35:22;10.10;99.90
55083;DHT22;40978;52.850;6.506;2023-03-01T08:37:48;10.50;99.90
55083;DHT22;40978;52.850;6.506;2023-03-01T08:40:14;11.00;99.90
55083;DHT22;40978;52.850;6.506;2023-03-01T08:42:41;11.40;99.90
55083;DHT22;40978;52.850;6.506;2023-03-01T08:45:11;11.90;99.90
55083;DHT22;40978;52.850;6.506;2023-03-01T08:47:36;12.40;99.90
55083;DHT22;40978;52.850;6.506;2023-03-01T08:50:03;13.00;99.90
55083;DHT22;40978;52.850;6.506;2023-03-01T08:52:29;13.50;99.90
55083;DHT22;40978;52.850;6.506;2023-03-01T08:54:56;13.80;99.90
55083;DHT22;40978;52.850;6.506;2023-03-01T08:57:22;13.80;99.30
55083;DHT22;40978;52.850;6.506;2023-03-01T08:59:48;14.20;98.90
55083;DHT22;40978;52.850;6.506;2023-03-01T09:02:18;14.60;97.40
55083;DHT22;40978;52.850;6.506;2023-03-01T09:04:44;14.60;95.50
55083;DHT22;40978;52.850;6.506;2023-03-01T09:07:10;14.90;95.20
55083;DHT22;40978;52.850;6.506;2023-03-01T09:09:37;15.00;94.10
55083;DHT22;40978;52.850;6.506;2023-03-01T09:12:03;15.00;94.70
55083;DHT22;40978;52.850;6.506;2023-03-01T09:14:29;15.10;93.40
55083;DHT22;40978;52.850;6.506;2023-03-01T09:16:58;15.20;93.20
55083;DHT22;40978;52.850;6.506;2023-03-01T09:19:23;15.30;92.10
55083;DHT22;40978;52.850;6.506;2023-03-01T09:21:49;15.30;91.60
55083;DHT22;40978;52.850;6.506;2023-03-01T09:24:22;15.20;91.50
55083;DHT22;40978;52.850;6.506;2023-03-01T09:26:49;15.60;90.80
55083;DHT22;40978;52.850;6.506;2023-03-01T09:29:16;15.90;90.40
55083;DHT22;40978;52.850;6.506;2023-03-01T09:31:42;16.00;89.20
55083;DHT22;40978;52.850;6.506;2023-03-01T09:34:09;15.50;87.90
55083;DHT22;40978;52.850;6.506;2023-03-01T09:36:35;15.80;88.50
55083;DHT22;40978;52.850;6.506;2023-03-01T09:39:01;16.20;87.20
55083;DHT22;40978;52.850;6.506;2023-03-01T09:44:01;15.90;82.30
55083;DHT22;40978;52.850;6.506;2023-03-01T09:46:32;16.10;84.40
55083;DHT22;40978;52.850;6.506;2023-03-01T09:49:09;16.30;83.40
55083;DHT22;40978;52.850;6.506;2023-03-01T09:51:37;16.70;83.50
55083;DHT22;40978;52.850;6.506;2023-03-01T09:54:04;17.00;74.60
55083;DHT22;40978;52.850;6.506;2023-03-01T09:59:30;17.10;74.50
55083;DHT22;40978;52.850;6.506;2023-03-01T10:04:51;17.30;74.50
55083;DHT22;40978;52.850;6.506;2023-03-01T10:07:53;17.60;70.00
55083;DHT22;40978;52.850;6.506;2023-03-01T10:10:33;17.30;64.60
55083;DHT22;40978;52.850;6.506;2023-03-01T10:13:03;17.30;68.30
55083;DHT22;40978;52.850;6.506;2023-03-01T10:15:43;17.20;68.70
55083;DHT22;40978;52.850;6.506;2023-03-01T10:18:30;17.40;65.50
55083;DHT22;40978;52.850;6.506;2023-03-01T10:21:07;17.40;61.60
55083;DHT22;40978;52.850;6.506;2023-03-01T10:23:35;17.30;64.80
55083;DHT22;40978;52.850;6.506;2023-03-01T10:27:08;17.80;63.70
55083;DHT22;40978;52.850;6.506;2023-03-01T10:29:10;18.00;58.50
55083;DHT22;40978;52.850;6.506;2023-03-01T10:31:47;17.20;59.60
55083;DHT22;40978;52.850;6.506;2023-03-01T10:34:18;16.80;59.20
55083;DHT22;40978;52.850;6.506;2023-03-01T10:36:50;16.60;60.50
55083;DHT22;40978;52.850;6.506;2023-03-01T10:39:19;16.30;60.80
55083;DHT22;40978;52.850;6.506;2023-03-01T10:47:16;16.30;58.90
55083;DHT22;40978;52.850;6.506;2023-03-01T10:50:03;15.90;61.50
55083;DHT22;40978;52.850;6.506;2023-03-01T10:52:35;15.90;62.30
55083;DHT22;40978;52.850;6.506;2023-03-01T10:55:24;15.80;61.00
55083;DHT22;40978;52.850;6.506;2023-03-01T10:58:08;15.60;59.50
55083;DHT22;40978;52.850;6.506;2023-03-01T11:00:46;15.60;60.10
55083;DHT22;40978;52.850;6.506;2023-03-01T11:03:14;15.70;61.50
55083;DHT22;40978;52.850;6.506;2023-03-01T11:06:00;15.70;62.00
55083;DHT22;40978;52.850;6.506;2023-03-01T11:11:13;15.40;56.50
55083;DHT22;40978;52.850;6.506;2023-03-01T11:16:30;15.20;55.60
55083;DHT22;40978;52.850;6.506;2023-03-01T11:19:13;15.00;57.30
55083;DHT22;40978;52.850;6.506;2023-03-01T11:21:44;14.90;58.60
55083;DHT22;40978;52.850;6.506;2023-03-01T11:24:14;14.90;57.90
55083;DHT22;40978;52.850;6.506;2023-03-01T11:26:44;15.00;57.90
55083;DHT22;40978;52.850;6.506;2023-03-01T11:29:40;14.80;56.60
55083;DHT22;40978;52.850;6.506;2023-03-01T11:32:10;15.10;57.80
55083;DHT22;40978;52.850;6.506;2023-03-01T11:34:49;15.30;57.50
55083;DHT22;40978;52.850;6.506;2023-03-01T11:42:52;14.70;56.60
55083;DHT22;40978;52.850;6.506;2023-03-01T11:45:23;14.40;57.10
55083;DHT22;40978;52.850;6.506;2023-03-01T11:50:30;14.60;56.50
55083;DHT22;40978;52.850;6.506;2023-03-01T12:01:09;14.30;55.20
55083;DHT22;40978;52.850;6.506;2023-03-01T12:09:31;13.80;56.80
55083;DHT22;40978;52.850;6.506;2023-03-01T12:50:59;13.70;60.00
55083;DHT22;40978;52.850;6.506;2023-03-01T12:53:39;13.80;60.00
55083;DHT22;40978;52.850;6.506;2023-03-01T12:56:20;12.80;60.00
55083;DHT22;40978;52.850;6.506;2023-03-01T13:05:02;9.20;67.00
55083;DHT22;40978;52.850;6.506;2023-03-01T13:07:35;8.30;70.50
55083;DHT22;40978;52.850;6.506;2023-03-01T13:20:31;9.00;72.90
55083;DHT22;40978;52.850;6.506;2023-03-01T13:23:07;9.90;72.90
55083;DHT22;40978;52.850;6.506;2023-03-01T13:25:35;10.30;71.60
55083;DHT22;40978;52.850;6.506;2023-03-01T13:33:45;9.40;72.90
55083;DHT22;40978;52.850;6.506;2023-03-01T13:39:00;9.10;71.50
55083;DHT22;40978;52.850;6.506;2023-03-01T13:44:22;9.00;72.80
55083;DHT22;40978;52.850;6.506;2023-03-01T13:46:59;9.00;73.80
55083;DHT22;40978;52.850;6.506;2023-03-01T13:49:29;9.20;74.00
55083;DHT22;40978;52.850;6.506;2023-03-01T13:51:59;9.30;72.20
55083;DHT22;40978;52.850;6.506;2023-03-01T13:54:33;9.50;70.60
55083;DHT22;40978;52.850;6.506;2023-03-01T13:57:01;9.50;70.80
55083;DHT22;40978;52.850;6.506;2023-03-01T13:59:27;9.40;71.50
55083;DHT22;40978;52.850;6.506;2023-03-01T14:01:58;9.20;72.60
55083;DHT22;40978;52.850;6.506;2023-03-01T14:04:29;8.80;73.90
55083;DHT22;40978;52.850;6.506;2023-03-01T14:07:20;8.50;73.20
55083;DHT22;40978;52.850;6.506;2023-03-01T14:09:51;8.10;74.40
55083;DHT22;40978;52.850;6.506;2023-03-01T14:17:55;7.70;79.30
55083;DHT22;40978;52.850;6.506;2023-03-01T14:20:26;7.60;78.80
55083;DHT22;40978;52.850;6.506;2023-03-01T14:22:55;7.60;78.70
55083;DHT22;40978;52.850;6.506;2023-03-01T14:30:32;7.50;80.30
55083;DHT22;40978;52.850;6.506;2023-03-01T14:33:02;7.40;81.20
55083;DHT22;40978;52.850;6.506;2023-03-01T14:35:32;7.40;81.60
55083;DHT22;40978;52.850;6.506;2023-03-01T14:37:59;7.30;83.00
55083;DHT22;40978;52.850;6.506;2023-03-01T14:40:30;7.20;82.90
55083;DHT22;40978;52.850;6.506;2023-03-01T14:42:59;7.10;83.20
55083;DHT22;40978;52.850;6.506;2023-03-01T14:45:27;7.10;83.70
55083;DHT22;40978;52.850;6.506;2023-03-01T14:47:55;7.10;85.10
55083;DHT22;40978;52.850;6.506;2023-03-01T14:50:25;7.00;84.70
55083;DHT22;40978;52.850;6.506;2023-03-01T14:53:11;7.00;85.80
55083;DHT22;40978;52.850;6.506;2023-03-01T14:55:42;7.00;86.90
55083;DHT22;40978;52.850;6.506;2023-03-01T14:58:13;6.90;86.10
55083;DHT22;40978;52.850;6.506;2023-03-01T15:00:48;6.90;86.50
55083;DHT22;40978;52.850;6.506;2023-03-01T15:03:17;6.90;87.10
55083;DHT22;40978;52.850;6.506;2023-03-01T15:05:43;6.90;87.70
55083;DHT22;40978;52.850;6.506;2023-03-01T15:08:18;6.90;86.30
55083;DHT22;40978;52.850;6.506;2023-03-01T15:13:41;6.90;87.10
55083;DHT22;40978;52.850;6.506;2023-03-01T15:16:19;6.90;87.10
55083;DHT22;40978;52.850;6.506;2023-03-01T15:19:06;6.90;87.40
55083;DHT22;40978;52.850;6.506;2023-03-01T15:21:34;6.80;87.90
55083;DHT22;40978;52.850;6.506;2023-03-01T15:26:49;6.80;88.90
55083;DHT22;40978;52.850;6.506;2023-03-01T15:29:23;6.80;89.80
55083;DHT22;40978;52.850;6.506;2023-03-01T15:32:03;6.80;89.80
55083;DHT22;40978;52.850;6.506;2023-03-01T15:34:32;6.90;90.40
55083;DHT22;40978;52.850;6.506;2023-03-01T15:37:00;6.80;90.40
55083;DHT22;40978;52.850;6.506;2023-03-01T15:42:08;6.80;91.00
55083;DHT22;40978;52.850;6.506;2023-03-01T15:44:35;6.70;90.90
55083;DHT22;40978;52.850;6.506;2023-03-01T15:47:06;6.70;91.40
55083;DHT22;40978;52.850;6.506;2023-03-01T15:49:38;6.70;91.60
55083;DHT22;40978;52.850;6.506;2023-03-01T15:52:08;6.70;91.60
55083;DHT22;40978;52.850;6.506;2023-03-01T15:54:39;6.60;91.70
55083;DHT22;40978;52.850;6.506;2023-03-01T15:57:12;6.70;92.00
55083;DHT22;40978;52.850;6.506;2023-03-01T15:59:38;6.60;91.80
55083;DHT22;40978;52.850;6.506;2023-03-01T16:02:11;6.60;91.90
55083;DHT22;40978;52.850;6.506;2023-03-01T16:04:38;6.60;92.30
55083;DHT22;40978;52.850;6.506;2023-03-01T16:07:04;6.50;92.60
55083;DHT22;40978;52.850;6.506;2023-03-01T16:09:30;6.50;92.90
55083;DHT22;40978;52.850;6.506;2023-03-01T16:11:56;6.60;93.30
55083;DHT22;40978;52.850;6.506;2023-03-01T16:14:22;6.60;93.60
55083;DHT22;40978;52.850;6.506;2023-03-01T16:16:48;6.50;93.80
55083;DHT22;40978;52.850;6.506;2023-03-01T16:19:14;6.50;94.00
55083;DHT22;40978;52.850;6.506;2023-03-01T16:21:41;6.50;94.20
55083;DHT22;40978;52.850;6.506;2023-03-01T16:24:08;6.40;94.40
55083;DHT22;40978;52.850;6.506;2023-03-01T16:26:34;6.40;94.90
55083;DHT22;40978;52.850;6.506;2023-03-01T16:29:02;6.40;95.20
55083;DHT22;40978;52.850;6.506;2023-03-01T16:31:28;6.40;95.50
55083;DHT22;40978;52.850;6.506;2023-03-01T16:33:58;6.30;95.90
55083;DHT22;40978;52.850;6.506;2023-03-01T16:36:25;6.40;96.00
55083;DHT22;40978;52.850;6.506;2023-03-01T16:38:54;6.30;96.40
55083;DHT22;40978;52.850;6.506;2023-03-01T16:41:22;6.20;96.70
55083;DHT22;40978;52.850;6.506;2023-03-01T16:43:48;6.20;96.90
55083;DHT22;40978;52.850;6.506;2023-03-01T16:46:17;6.10;97.20
55083;DHT22;40978;52.850;6.506;2023-03-01T16:48:43;6.10;97.80
55083;DHT22;40978;52.850;6.506;2023-03-01T16:51:09;6.00;98.00
55083;DHT22;40978;52.850;6.506;2023-03-01T16:53:36;6.00;98.40
55083;DHT22;40978;52.850;6.506;2023-03-01T16:56:04;5.90;99.30
55083;DHT22;40978;52.850;6.506;2023-03-01T16:58:31;5.80;99.30
55083;DHT22;40978;52.850;6.506;2023-03-01T17:00:59;5.80;99.90
55083;DHT22;40978;52.850;6.506;2023-03-01T17:03:28;5.80;99.90
55083;DHT22;40978;52.850;6.506;2023-03-01T17:05:55;5.70;99.90
55083;DHT22;40978;52.850;6.506;2023-03-01T17:08:20;5.70;99.90
55083;DHT22;40978;52.850;6.506;2023-03-01T17:10:46;5.60;99.90
55083;DHT22;40978;52.850;6.506;2023-03-01T17:13:12;5.50;99.90
55083;DHT22;40978;52.850;6.506;2023-03-01T17:15:40;5.50;99.90
55083;DHT22;40978;52.850;6.506;2023-03-01T17:18:07;5.40;99.90
55083;DHT22;40978;52.850;6.506;2023-03-01T17:20:33;5.40;99.90
55083;DHT22;40978;52.850;6.506;2023-03-01T17:22:59;5.30;99.90
55083;DHT22;40978;52.850;6.506;2023-03-01T17:25:24;5.30;99.90
55083;DHT22;40978;52.850;6.506;2023-03-01T17:27:50;5.20;99.90
55083;DHT22;40978;52.850;6.506;2023-03-01T17:30:16;5.10;99.90
55083;DHT22;40978;52.850;6.506;2023-03-01T17:32:42;5.10;99.90
55083;DHT22;40978;52.850;6.506;2023-03-01T17:35:08;5.00;99.90
55083;DHT22;40978;52.850;6.506;2023-03-01T17:37:36;4.90;99.90
55083;DHT22;40978;52.850;6.506;2023-03-01T17:40:04;4.90;99.90
55083;DHT22;40978;52.850;6.506;2023-03-01T17:42:30;4.80;99.90
55083;DHT22;40978;52.850;6.506;2023-03-01T17:44:56;4.70;99.90
55083;DHT22;40978;52.850;6.506;2023-03-01T17:47:23;4.60;99.90
55083;DHT22;40978;52.850;6.506;2023-03-01T17:49:48;4.50;99.90
55083;DHT22;40978;52.850;6.506;2023-03-01T17:52:14;4.40;99.90
55083;DHT22;40978;52.850;6.506;2023-03-01T17:54:40;4.40;99.90
55083;DHT22;40978;52.850;6.506;2023-03-01T17:57:05;4.40;99.90
55083;DHT22;40978;52.850;6.506;2023-03-01T17:59:31;4.40;99.90
55083;DHT22;40978;52.850;6.506;2023-03-01T18:02:00;4.40;99.90
55083;DHT22;40978;52.850;6.506;2023-03-01T18:04:26;4.30;99.90
55083;DHT22;40978;52.850;6.506;2023-03-01T18:06:52;4.30;99.90